createdAt,value
2018-05-23T00:02:09.059Z,4.80
2018-05-23T00:04:36.868Z,4.97
2018-05-23T00:07:04.683Z,5.53
2018-05-23T00:09:32.454Z,5.20
2018-05-23T00:12:00.167Z,5.03
2018-05-23T00:14:27.875Z,4.80
2018-05-23T00:16:55.534Z,5.07
2018-05-23T00:19:23.308Z,5.83
2018-05-23T00:21:51.034Z,5.90
2018-05-23T00:24:18.734Z,5.70
2018-05-23T00:26:46.499Z,5.50
2018-05-23T00:29:14.310Z,5.67
2018-05-23T00:31:42.131Z,4.93
2018-05-23T00:34:09.943Z,5.53
2018-05-23T00:36:37.760Z,4.93
2018-05-23T00:39:06.449Z,5.23
2018-05-23T00:41:34.171Z,5.43
2018-05-23T00:44:01.976Z,5.40
2018-05-23T00:46:29.642Z,4.80
2018-05-23T00:48:57.394Z,4.93
2018-05-23T00:51:25.110Z,4.10
2018-05-23T00:53:52.825Z,3.97
2018-05-23T00:56:20.545Z,4.80
2018-05-23T00:58:48.360Z,4.53
2018-05-23T01:01:16.018Z,5.30
2018-05-23T01:03:43.744Z,4.80
2018-05-23T01:06:11.448Z,4.30
2018-05-23T01:08:39.302Z,4.73
2018-05-23T01:11:07.027Z,5.60
2018-05-23T01:13:34.844Z,5.00
2018-05-23T01:16:02.609Z,5.30
2018-05-23T01:18:30.421Z,4.77
2018-05-23T01:20:58.240Z,5.53
2018-05-23T01:23:26.055Z,5.10
2018-05-23T01:25:53.871Z,5.10
2018-05-23T01:28:21.636Z,4.40
2018-05-23T01:30:49.355Z,4.13
2018-05-23T01:33:17.067Z,3.80
2018-05-23T01:35:44.929Z,4.30
2018-05-23T01:38:12.694Z,4.27
2018-05-23T01:40:40.398Z,4.43
2018-05-23T01:43:08.122Z,4.40
2018-05-23T01:45:35.781Z,4.60
2018-05-23T01:48:03.547Z,4.23
2018-05-23T01:50:31.264Z,4.00
2018-05-23T01:52:59.076Z,5.07
2018-05-23T01:55:26.942Z,5.30
2018-05-23T01:57:54.708Z,5.10
2018-05-23T02:00:22.364Z,6.13
2018-05-23T02:02:50.032Z,5.77
2018-05-23T02:05:17.694Z,5.57
2018-05-23T02:07:45.346Z,6.13
2018-05-23T02:10:13.018Z,6.20
2018-05-23T02:12:40.783Z,5.47
2018-05-23T02:15:08.550Z,5.50
2018-05-23T02:17:36.274Z,4.80
2018-05-23T02:20:04.079Z,4.80
2018-05-23T02:22:31.741Z,5.60
2018-05-23T02:24:59.607Z,5.80
2018-05-23T02:27:27.373Z,6.27
2018-05-23T02:29:55.237Z,5.70
2018-05-23T02:32:23.000Z,5.70
2018-05-23T02:34:50.871Z,6.17
2018-05-23T02:37:18.633Z,5.80
2018-05-23T02:39:46.502Z,5.97
2018-05-23T02:42:14.263Z,6.00
2018-05-23T02:44:42.131Z,6.10
2018-05-23T02:47:10.001Z,5.57
2018-05-23T02:49:37.773Z,5.37
2018-05-23T02:52:05.531Z,5.80
2018-05-23T02:54:33.291Z,5.70
2018-05-23T02:57:01.016Z,5.80
2018-05-23T02:59:28.819Z,4.33
2018-05-23T03:01:56.482Z,5.07
2018-05-23T03:04:24.251Z,5.10
2018-05-23T03:06:51.958Z,4.60
2018-05-23T03:09:19.777Z,4.97
2018-05-23T03:11:47.436Z,5.37
2018-05-23T03:14:15.160Z,5.20
2018-05-23T03:16:42.853Z,6.40
2018-05-23T03:19:10.525Z,4.83
2018-05-23T03:21:38.292Z,4.30
2018-05-23T03:24:06.261Z,5.07
2018-05-23T03:26:33.922Z,4.20
2018-05-23T03:29:01.688Z,4.10
2018-05-23T03:31:29.401Z,4.80
2018-05-23T03:33:57.217Z,5.00
2018-05-23T03:36:24.935Z,4.37
2018-05-23T03:38:52.748Z,4.13
2018-05-23T03:41:20.469Z,4.30
2018-05-23T03:43:48.274Z,4.43
2018-05-23T03:46:16.039Z,4.63
2018-05-23T03:48:43.805Z,4.57
2018-05-23T03:51:11.560Z,4.57
2018-05-23T03:53:39.376Z,4.90
2018-05-23T03:56:07.200Z,4.57
2018-05-23T03:58:34.964Z,4.50
2018-05-23T04:01:14.607Z,4.70
2018-05-23T04:03:54.249Z,4.83
2018-05-23T04:09:25.311Z,4.60
2018-05-23T04:11:53.076Z,4.20
2018-05-23T04:14:20.897Z,3.77
2018-05-23T04:16:48.707Z,4.10
2018-05-23T04:19:16.428Z,4.10
2018-05-23T04:21:44.137Z,3.93
2018-05-23T04:24:11.900Z,4.33
2018-05-23T04:26:39.605Z,3.80
2018-05-23T04:29:07.428Z,4.80
2018-05-23T04:31:35.302Z,4.57
2018-05-23T04:34:03.059Z,4.20
2018-05-23T04:36:30.724Z,4.60
2018-05-23T04:38:58.486Z,4.50
2018-05-23T04:41:26.252Z,4.40
2018-05-23T04:43:53.976Z,4.93
2018-05-23T04:46:21.741Z,4.67
2018-05-23T04:48:49.570Z,5.90
2018-05-23T04:51:17.411Z,5.27
2018-05-23T04:53:45.177Z,4.87
2018-05-23T04:56:12.937Z,4.60
2018-05-23T04:58:40.704Z,4.70
2018-05-23T05:01:08.470Z,4.60
2018-05-23T05:03:36.179Z,4.87
2018-05-23T05:06:04.207Z,4.37
2018-05-23T05:08:31.967Z,5.30
2018-05-23T05:10:59.840Z,4.83
2018-05-23T05:13:27.601Z,5.57
2018-05-23T05:15:55.467Z,4.83
2018-05-23T05:18:23.231Z,4.70
2018-05-23T05:20:50.995Z,5.07
2018-05-23T05:23:18.658Z,6.20
2018-05-23T05:25:46.527Z,5.40
2018-05-23T05:28:14.249Z,4.93
2018-05-23T05:30:42.056Z,4.70
2018-05-23T05:33:09.819Z,4.80
2018-05-23T05:35:37.653Z,4.33
2018-05-23T05:38:05.451Z,5.47
2018-05-23T05:40:33.316Z,5.17
2018-05-23T05:43:00.979Z,5.23
2018-05-23T05:45:28.842Z,6.10
2018-05-23T05:47:56.510Z,5.60
2018-05-23T05:50:24.375Z,4.90
2018-05-23T05:52:52.091Z,5.90
2018-05-23T05:55:19.903Z,5.47
2018-05-23T05:57:47.668Z,5.73
2018-05-23T06:00:15.433Z,5.40
2018-05-23T06:02:43.158Z,4.87
2018-05-23T06:05:10.963Z,4.67
2018-05-23T06:07:38.624Z,4.47
2018-05-23T06:10:06.338Z,4.60
2018-05-23T06:12:34.154Z,5.10
2018-05-23T06:15:01.968Z,4.83
2018-05-23T06:17:29.735Z,4.50
2018-05-23T06:19:57.550Z,5.10
2018-05-23T06:22:25.242Z,4.20
2018-05-23T06:24:53.077Z,4.80
2018-05-23T06:27:20.806Z,5.07
2018-05-23T06:29:48.544Z,5.63
2018-05-23T06:32:16.269Z,4.90
2018-05-23T06:34:43.935Z,4.27
2018-05-23T06:37:11.798Z,4.10
2018-05-23T06:39:39.511Z,4.83
2018-05-23T06:42:07.327Z,4.70
2018-05-23T06:44:35.092Z,4.50
2018-05-23T06:47:02.856Z,4.80
2018-05-23T06:49:30.603Z,5.47
2018-05-23T06:51:58.281Z,4.90
2018-05-23T06:54:25.945Z,4.43
2018-05-23T06:56:53.607Z,4.47
2018-05-23T06:59:21.272Z,5.20
2018-05-23T07:01:49.136Z,4.80
2018-05-23T07:04:16.854Z,4.30
2018-05-23T07:06:44.563Z,4.40
2018-05-23T07:09:12.225Z,4.97
2018-05-23T07:11:39.995Z,4.80
2018-05-23T07:14:07.754Z,4.97
2018-05-23T07:16:35.519Z,5.30
2018-05-23T07:19:03.283Z,4.47
2018-05-23T07:21:31.150Z,5.50
2018-05-23T07:23:58.864Z,5.73
2018-05-23T07:26:26.682Z,5.37
2018-05-23T07:28:54.433Z,4.87
2018-05-23T07:31:22.495Z,5.30
2018-05-23T07:33:50.156Z,5.40
2018-05-23T07:36:17.946Z,5.37
2018-05-23T07:38:45.706Z,4.67
2018-05-23T07:41:13.580Z,4.33
2018-05-23T07:43:41.439Z,5.00
2018-05-23T07:46:09.307Z,4.97
2018-05-23T07:48:37.033Z,5.13
2018-05-23T07:51:04.839Z,4.73
2018-05-23T07:53:32.608Z,5.30
2018-05-23T07:56:00.468Z,5.13
2018-05-23T07:58:28.169Z,4.07
2018-05-23T08:00:55.920Z,4.93
2018-05-23T08:03:23.862Z,4.50
2018-05-23T08:05:51.627Z,4.43
2018-05-23T08:08:19.343Z,5.10
2018-05-23T08:10:47.157Z,4.37
2018-05-23T08:13:14.819Z,4.30
2018-05-23T08:15:42.583Z,4.57
2018-05-23T08:18:10.348Z,4.70
2018-05-23T08:20:38.051Z,4.93
2018-05-23T08:23:05.662Z,5.30
2018-05-23T08:25:33.335Z,5.23
2018-05-23T08:28:00.996Z,5.93
2018-05-23T08:30:28.756Z,4.90
2018-05-23T08:32:56.525Z,6.17
2018-05-23T08:35:24.185Z,5.67
2018-05-23T08:37:51.849Z,4.60
2018-05-23T08:40:19.720Z,5.30
2018-05-23T08:42:47.382Z,5.67
2018-05-23T08:45:15.143Z,4.77
2018-05-23T08:47:42.908Z,5.07
2018-05-23T08:50:10.674Z,5.10
2018-05-23T08:52:38.499Z,4.80
2018-05-23T08:55:06.196Z,4.83
2018-05-23T08:57:33.966Z,5.80
2018-05-23T09:00:01.622Z,5.97
2018-05-23T09:02:29.393Z,5.20
2018-05-23T09:04:57.009Z,5.20
2018-05-23T09:07:24.716Z,5.57
2018-05-23T09:09:52.438Z,5.47
2018-05-23T09:12:20.458Z,5.80
2018-05-23T09:14:48.113Z,6.10
2018-05-23T09:17:15.864Z,5.70
2018-05-23T09:19:43.586Z,6.40
2018-05-23T09:22:11.307Z,6.17
2018-05-23T09:24:39.069Z,5.90
2018-05-23T09:27:06.729Z,5.50
2018-05-23T09:29:34.494Z,5.73
2018-05-23T09:32:02.259Z,5.63
2018-05-23T09:34:29.916Z,5.60
2018-05-23T09:36:57.583Z,5.50
2018-05-23T09:39:25.244Z,5.07
2018-05-23T09:41:52.958Z,5.30
2018-05-23T09:44:20.777Z,6.40
2018-05-23T09:46:48.642Z,5.90
2018-05-23T09:49:16.385Z,5.40
2018-05-23T09:51:44.108Z,6.20
2018-05-23T09:54:11.944Z,5.50
2018-05-23T09:56:39.691Z,5.80
2018-05-23T09:59:07.464Z,5.40
2018-05-23T10:01:35.898Z,5.77
2018-05-23T10:04:03.711Z,6.03
2018-05-23T10:06:31.477Z,6.10
2018-05-23T10:08:59.238Z,6.60
2018-05-23T10:11:26.894Z,6.50
2018-05-23T10:13:54.563Z,6.00
2018-05-23T10:16:22.329Z,5.87
2018-05-23T10:18:50.092Z,5.57
2018-05-23T10:21:17.754Z,5.47
2018-05-23T10:23:45.520Z,5.60
2018-05-23T10:26:13.282Z,5.13
2018-05-23T10:28:40.944Z,5.20
2018-05-23T10:31:08.712Z,5.30
2018-05-23T10:33:36.374Z,5.27
2018-05-23T10:36:04.239Z,5.20
2018-05-23T10:38:31.947Z,4.50
2018-05-23T10:40:59.667Z,4.73
2018-05-23T10:43:27.324Z,5.33
2018-05-23T10:45:54.982Z,4.30
2018-05-23T10:48:22.713Z,5.70
2018-05-23T10:50:50.982Z,4.60
2018-05-23T10:53:18.796Z,4.83
2018-05-23T10:55:46.458Z,5.57
2018-05-23T10:58:14.329Z,4.90
2018-05-23T11:00:42.093Z,4.10
2018-05-23T11:03:10.464Z,4.40
2018-05-23T11:05:38.332Z,3.23
2018-05-23T11:08:05.998Z,3.93
2018-05-23T11:10:33.716Z,3.90
2018-05-23T11:13:01.435Z,4.07
2018-05-23T11:15:29.189Z,3.73
2018-05-23T11:17:56.945Z,5.00
2018-05-23T11:20:24.711Z,4.30
2018-05-23T11:22:52.378Z,3.80
2018-05-23T11:25:20.042Z,4.20
2018-05-23T11:27:47.910Z,4.20
2018-05-23T11:30:15.674Z,3.83
2018-05-23T11:32:43.397Z,4.00
2018-05-23T11:35:11.204Z,4.00
2018-05-23T11:37:38.976Z,4.00
2018-05-23T11:40:06.734Z,3.70
2018-05-23T11:42:34.598Z,4.10
2018-05-23T11:45:02.257Z,4.43
2018-05-23T11:47:29.913Z,3.73
2018-05-23T11:49:57.641Z,3.47
2018-05-23T11:52:25.453Z,4.50
2018-05-23T11:54:53.216Z,3.70
2018-05-23T11:57:20.879Z,3.87
2018-05-23T11:59:48.588Z,4.80
2018-05-23T12:02:16.716Z,3.57
2018-05-23T12:04:44.486Z,4.37
2018-05-23T12:07:12.243Z,3.63
2018-05-23T12:09:39.952Z,4.20
2018-05-23T12:12:07.673Z,4.47
2018-05-23T12:14:35.331Z,4.27
2018-05-23T12:17:03.098Z,4.83
2018-05-23T12:19:31.061Z,4.07
2018-05-23T12:21:58.831Z,4.20
2018-05-23T12:24:26.699Z,4.40
2018-05-23T12:26:54.776Z,4.50
2018-05-23T12:29:22.429Z,4.67
2018-05-23T12:31:50.075Z,4.87
2018-05-23T12:34:17.859Z,4.00
2018-05-23T12:36:45.527Z,4.40
2018-05-23T12:39:13.284Z,4.70
2018-05-23T12:41:41.049Z,4.07
2018-05-23T12:44:08.812Z,4.70
2018-05-23T12:46:36.579Z,4.17
2018-05-23T12:49:04.241Z,4.90
2018-05-23T12:51:32.113Z,4.57
2018-05-23T12:53:59.872Z,5.13
2018-05-23T12:56:27.739Z,5.20
2018-05-23T12:58:55.598Z,4.50
2018-05-23T13:01:23.361Z,5.10
2018-05-23T13:03:51.078Z,4.80
2018-05-23T13:06:18.896Z,4.80
2018-05-23T13:08:46.667Z,4.67
2018-05-23T13:11:14.334Z,4.80
2018-05-23T13:13:42.132Z,5.37
2018-05-23T13:16:09.949Z,4.50
2018-05-23T13:18:37.815Z,4.67
2018-05-23T13:21:05.610Z,4.40
2018-05-23T13:23:33.457Z,5.60
2018-05-23T13:26:01.281Z,5.37
2018-05-23T13:28:29.057Z,5.40
2018-05-23T13:30:56.794Z,5.57
2018-05-23T13:33:24.620Z,5.80
2018-05-23T13:35:52.451Z,5.07
2018-05-23T13:38:20.486Z,5.47
2018-05-23T13:40:48.258Z,5.30
2018-05-23T13:43:16.088Z,4.97
2018-05-23T13:45:43.797Z,5.20
2018-05-23T13:48:11.613Z,5.50
2018-05-23T13:50:39.353Z,5.40
2018-05-23T13:53:07.039Z,5.10
2018-05-23T13:55:35.009Z,5.60
2018-05-23T13:58:02.793Z,5.23
2018-05-23T14:00:30.742Z,5.50
2018-05-23T14:02:58.705Z,4.97
2018-05-23T14:05:26.682Z,5.30
2018-05-23T14:07:54.623Z,5.60
2018-05-23T14:10:22.334Z,5.40
2018-05-23T14:12:50.613Z,5.27
2018-05-23T14:15:18.425Z,6.60
2018-05-23T14:17:46.404Z,5.07
2018-05-23T14:20:14.191Z,5.10
2018-05-23T14:22:41.851Z,5.27
2018-05-23T14:25:15.556Z,5.60
2018-05-23T14:27:43.218Z,5.93
2018-05-23T14:30:11.092Z,5.00
2018-05-23T14:32:38.952Z,5.27
2018-05-23T14:35:06.607Z,5.90
2018-05-23T14:37:34.379Z,5.37
2018-05-23T14:40:02.144Z,5.13
2018-05-23T14:42:30.112Z,5.63
2018-05-23T14:44:57.882Z,5.53
2018-05-23T14:47:25.642Z,5.33
2018-05-23T14:49:53.714Z,5.37
2018-05-23T14:52:21.478Z,5.90
2018-05-23T14:54:49.227Z,5.23
2018-05-23T14:57:17.242Z,4.80
2018-05-23T14:59:44.983Z,5.73
2018-05-23T15:02:12.947Z,6.23
2018-05-23T15:04:40.655Z,5.30
2018-05-23T15:07:08.566Z,3.57
2018-05-23T15:09:36.409Z,9.60
2018-05-23T15:12:04.066Z,5.57
2018-05-23T15:14:31.679Z,4.83
2018-05-23T15:16:59.351Z,5.90
2018-05-23T15:19:26.974Z,11.83
2018-05-23T15:21:54.602Z,11.90
2018-05-23T15:24:22.276Z,13.20
2018-05-23T15:26:49.906Z,11.80
2018-05-23T15:29:17.640Z,12.20
2018-05-23T15:31:45.321Z,11.73
2018-05-23T15:34:13.048Z,12.63
2018-05-23T15:36:40.688Z,12.50
2018-05-23T15:39:08.411Z,12.27
2018-05-23T15:41:36.189Z,12.57
2018-05-23T15:44:03.867Z,11.20
2018-05-23T15:46:31.513Z,10.30
2018-05-23T15:48:59.197Z,9.87
2018-05-23T15:51:26.893Z,11.83
2018-05-23T15:53:54.596Z,10.30
2018-05-23T15:56:21.496Z,10.50
2018-05-23T15:58:48.468Z,10.70
2018-05-23T16:01:15.367Z,10.37
2018-05-23T16:03:42.312Z,11.57
2018-05-23T16:06:09.219Z,14.60
2018-05-23T16:08:36.173Z,12.37
2018-05-23T16:11:03.131Z,13.40
2018-05-23T16:13:30.168Z,15.00
2018-05-23T16:15:57.102Z,15.80
2018-05-23T16:18:24.056Z,15.37
2018-05-23T16:20:50.952Z,13.90
2018-05-23T16:23:17.901Z,16.27
2018-05-23T16:25:44.805Z,16.00
2018-05-23T16:28:11.734Z,15.83
2018-05-23T16:30:38.639Z,16.97
2018-05-23T16:33:05.578Z,16.90
2018-05-23T16:35:32.498Z,14.80
2018-05-23T16:37:59.461Z,15.37
2018-05-23T16:40:26.438Z,15.67
2018-05-23T16:42:53.399Z,15.33
2018-05-23T16:45:20.297Z,15.37
2018-05-23T16:47:47.239Z,15.70
2018-05-23T16:50:14.140Z,13.70
2018-05-23T16:52:41.080Z,13.70
2018-05-23T16:55:08.036Z,15.80
2018-05-23T16:57:35.003Z,14.80
2018-05-23T17:00:01.988Z,15.47
2018-05-23T17:02:28.916Z,15.80
2018-05-23T17:04:55.863Z,16.10
2018-05-23T17:07:22.769Z,15.53
2018-05-23T17:09:49.729Z,15.00
2018-05-23T17:12:16.637Z,16.03
2018-05-23T17:14:43.580Z,15.53
2018-05-23T17:17:10.487Z,15.10
2018-05-23T17:19:37.443Z,15.40
2018-05-23T17:22:04.348Z,15.70
2018-05-23T17:24:31.359Z,13.37
2018-05-23T17:26:58.261Z,14.10
2018-05-23T17:29:25.296Z,14.47
2018-05-23T17:31:52.163Z,16.10
2018-05-23T17:34:19.105Z,17.20
2018-05-23T17:36:46.013Z,15.50
2018-05-23T17:39:12.959Z,14.03
2018-05-23T17:41:39.858Z,16.17
2018-05-23T17:44:06.806Z,15.63
2018-05-23T17:46:33.849Z,15.43
2018-05-23T17:49:00.853Z,14.17
2018-05-23T17:51:27.839Z,11.70
2018-05-23T17:53:54.768Z,12.70
2018-05-23T17:56:21.715Z,13.00
2018-05-23T17:58:48.628Z,13.17
2018-05-23T18:01:15.576Z,12.80
2018-05-23T18:03:42.509Z,13.30
2018-05-23T18:06:09.545Z,12.60
2018-05-23T18:08:36.481Z,12.20
2018-05-23T18:11:03.440Z,10.67
2018-05-23T18:13:30.330Z,11.43
2018-05-23T18:15:57.273Z,11.93
2018-05-23T18:18:24.191Z,10.60
2018-05-23T18:20:51.144Z,10.70
2018-05-23T18:23:18.069Z,11.23
2018-05-23T18:25:45.015Z,10.50
2018-05-23T18:28:11.993Z,12.27
2018-05-23T18:30:38.966Z,10.90
2018-05-23T18:33:05.891Z,11.10
2018-05-23T18:35:32.852Z,11.23
2018-05-23T18:37:59.747Z,10.73
2018-05-23T18:40:26.694Z,11.63
2018-05-23T18:42:53.600Z,11.40
2018-05-23T18:45:20.504Z,11.83
2018-05-23T18:47:47.449Z,12.17
2018-05-23T18:50:14.369Z,11.33
2018-05-23T18:52:41.310Z,11.80
2018-05-23T18:55:08.209Z,12.57
2018-05-23T18:57:35.160Z,12.07
2018-05-23T19:00:02.063Z,12.60
2018-05-23T19:02:29.036Z,13.00
2018-05-23T19:04:56.011Z,11.90
2018-05-23T19:07:22.967Z,12.53
2018-05-23T19:09:50.076Z,13.00
2018-05-23T19:12:17.026Z,11.87
2018-05-23T19:14:43.931Z,15.60
2018-05-23T19:17:10.875Z,15.63
2018-05-23T19:19:37.868Z,15.57
2018-05-23T19:22:04.751Z,16.90
2018-05-23T19:24:31.668Z,16.10
2018-05-23T19:26:58.617Z,14.70
2018-05-23T19:29:25.539Z,15.77
2018-05-23T19:31:52.546Z,15.03
2018-05-23T19:34:19.472Z,14.90
2018-05-23T19:36:46.499Z,13.23
2018-05-23T19:39:13.444Z,12.20
2018-05-23T19:41:40.392Z,11.43
2018-05-23T19:44:07.283Z,10.70
2018-05-23T19:46:34.224Z,10.80
2018-05-23T19:49:01.127Z,10.07
2018-05-23T19:51:28.185Z,11.63
2018-05-23T19:53:55.254Z,9.93
2018-05-23T19:56:22.286Z,11.03
2018-05-23T19:58:49.314Z,11.70
2018-05-23T20:01:16.223Z,9.73
2018-05-23T20:03:43.232Z,10.27
2018-05-23T20:06:10.137Z,9.77
2018-05-23T20:08:37.112Z,8.57
2018-05-23T20:11:04.052Z,9.37
2018-05-23T20:13:31.014Z,10.07
2018-05-23T20:15:58.055Z,9.20
2018-05-23T20:18:24.982Z,9.53
2018-05-23T20:20:51.956Z,10.03
2018-05-23T20:23:18.889Z,10.60
2018-05-23T20:25:45.782Z,10.50
2018-05-23T20:28:12.796Z,9.30
2018-05-23T20:30:39.657Z,10.00
2018-05-23T20:33:06.621Z,10.00
2018-05-23T20:35:33.512Z,8.67
2018-05-23T20:38:00.486Z,8.27
2018-05-23T20:40:27.487Z,8.40
2018-05-23T20:42:54.387Z,7.60
2018-05-23T20:45:21.337Z,7.80
2018-05-23T20:47:48.232Z,8.00
2018-05-23T20:50:15.194Z,8.10
2018-05-23T20:52:42.078Z,7.63
2018-05-23T20:55:09.015Z,8.70
2018-05-23T20:57:35.915Z,8.27
2018-05-23T21:00:02.877Z,8.40
2018-05-23T21:02:29.856Z,9.70
2018-05-23T21:04:56.819Z,7.37
2018-05-23T21:07:23.714Z,8.50
2018-05-23T21:09:50.819Z,8.63
2018-05-23T21:12:17.711Z,7.43
2018-05-23T21:14:44.648Z,9.40
2018-05-23T21:17:11.560Z,9.20
2018-05-23T21:19:38.536Z,9.00
2018-05-23T21:22:05.472Z,9.53
2018-05-23T21:24:32.508Z,8.60
2018-05-23T21:26:59.428Z,8.13
2018-05-23T21:29:26.356Z,7.70
2018-05-23T21:31:53.239Z,8.97
2018-05-23T21:34:20.172Z,9.33
2018-05-23T21:36:47.072Z,10.00
2018-05-23T21:39:14.011Z,8.60
2018-05-23T21:41:41.107Z,9.07
2018-05-23T21:44:08.058Z,8.23
2018-05-23T21:46:35.022Z,7.60
2018-05-23T21:49:01.955Z,9.87
2018-05-23T21:51:28.879Z,9.20
2018-05-23T21:53:55.847Z,9.97
2018-05-23T21:56:22.747Z,10.40
2018-05-23T21:58:49.679Z,9.40
2018-05-23T22:01:16.572Z,9.00
2018-05-23T22:03:43.500Z,10.60
2018-05-23T22:06:11.472Z,9.70
2018-05-23T22:08:38.403Z,9.20
2018-05-23T22:11:05.298Z,10.03
2018-05-23T22:13:32.240Z,8.40
2018-05-23T22:15:59.127Z,9.00
2018-05-23T22:18:26.386Z,9.03
2018-05-23T22:20:53.386Z,8.97
2018-05-23T22:23:20.277Z,8.80
2018-05-23T22:25:47.210Z,9.37
2018-05-23T22:28:14.095Z,9.13
2018-05-23T22:30:41.133Z,10.23
2018-05-23T22:33:07.976Z,9.50
2018-05-23T22:35:34.927Z,10.70
2018-05-23T22:38:01.828Z,9.83
2018-05-23T22:40:28.768Z,9.40
2018-05-23T22:42:55.671Z,9.60
2018-05-23T22:45:22.618Z,9.90
2018-05-23T22:47:49.516Z,10.50
2018-05-23T22:50:16.465Z,10.00
2018-05-23T22:52:43.369Z,10.17
2018-05-23T22:55:10.312Z,10.97
2018-05-23T22:57:37.212Z,11.83
2018-05-23T23:00:04.149Z,10.73
2018-05-23T23:02:31.048Z,12.13
2018-05-23T23:04:57.994Z,11.70
2018-05-23T23:07:24.892Z,11.80
2018-05-23T23:09:51.840Z,11.17
2018-05-23T23:12:18.743Z,10.27
2018-05-23T23:14:45.689Z,11.53
2018-05-23T23:17:12.591Z,10.60
2018-05-23T23:19:39.534Z,11.30
2018-05-23T23:22:06.468Z,12.30
2018-05-23T23:24:33.418Z,12.40
2018-05-23T23:27:00.320Z,11.87
2018-05-23T23:29:27.260Z,11.73
2018-05-23T23:31:54.158Z,10.33
2018-05-23T23:34:21.096Z,12.00
2018-05-23T23:36:47.997Z,11.33
2018-05-23T23:39:14.933Z,11.77
2018-05-23T23:41:41.834Z,11.03
2018-05-23T23:44:08.782Z,11.03
2018-05-23T23:46:35.684Z,11.63
2018-05-23T23:49:02.638Z,10.83
2018-05-23T23:51:29.538Z,13.10
2018-05-23T23:53:56.432Z,11.63
2018-05-23T23:56:23.368Z,12.70
2018-05-23T23:58:50.264Z,12.60
